createdAt,value
2023-02-19T00:02:18.035Z,14.80
2023-02-19T00:04:45.392Z,20.52
2023-02-19T00:07:12.537Z,12.55
2023-02-19T00:09:39.576Z,22.38
2023-02-19T00:12:06.991Z,18.60
2023-02-19T00:14:34.020Z,14.75
2023-02-19T00:17:01.130Z,15.70
2023-02-19T00:19:28.422Z,14.50
2023-02-19T00:21:55.556Z,15.55
2023-02-19T00:24:22.833Z,14.40
2023-02-19T00:26:50.091Z,18.45
2023-02-19T00:29:21.750Z,22.42
2023-02-19T00:31:49.771Z,17.20
2023-02-19T00:34:17.034Z,15.90
2023-02-19T00:36:44.732Z,15.73
2023-02-19T00:39:15.925Z,14.18
2023-02-19T00:41:43.732Z,17.08
2023-02-19T00:44:12.239Z,17.25
2023-02-19T00:46:46.201Z,15.65
2023-02-19T00:49:20.150Z,18.73
2023-02-19T00:51:47.765Z,19.33
2023-02-19T00:54:15.722Z,17.02
2023-02-19T00:56:43.139Z,16.73
2023-02-19T00:59:10.407Z,17.00
2023-02-19T01:01:38.390Z,17.90
2023-02-19T01:04:06.715Z,13.10
2023-02-19T01:06:34.863Z,17.45
2023-02-19T01:09:02.832Z,11.75
2023-02-19T01:11:30.063Z,20.45
2023-02-19T01:13:58.696Z,17.73
2023-02-19T01:16:27.579Z,16.67
2023-02-19T01:18:56.500Z,17.90
2023-02-19T01:21:26.528Z,17.20
2023-02-19T01:26:26.349Z,10.32
2023-02-19T01:28:53.603Z,16.42
2023-02-19T01:31:23.644Z,15.35
2023-02-19T01:33:57.000Z,16.38
2023-02-19T01:36:25.110Z,12.25
2023-02-19T01:38:52.258Z,12.50
2023-02-19T01:41:22.607Z,18.42
2023-02-19T01:44:09.237Z,16.33
2023-02-19T01:46:38.956Z,11.85
2023-02-19T01:49:15.062Z,14.50
2023-02-19T01:51:47.571Z,14.27
2023-02-19T01:54:18.286Z,15.90
2023-02-19T01:56:47.682Z,16.73
2023-02-19T01:59:15.512Z,15.07
2023-02-19T02:01:43.743Z,13.98
2023-02-19T02:04:13.593Z,11.13
2023-02-19T02:06:50.282Z,16.42
2023-02-19T02:09:39.161Z,8.50
2023-02-19T02:12:07.407Z,16.15
2023-02-19T02:14:38.265Z,17.30
2023-02-19T02:17:05.216Z,14.05
2023-02-19T02:20:19.872Z,13.57
2023-02-19T02:23:08.911Z,11.65
2023-02-19T02:26:30.525Z,13.40
2023-02-19T02:29:37.558Z,12.55
2023-02-19T02:32:13.811Z,10.27
2023-02-19T02:34:58.008Z,11.00
2023-02-19T02:37:27.881Z,10.57
2023-02-19T02:39:58.751Z,12.77
2023-02-19T02:42:28.744Z,13.85
2023-02-19T02:45:35.300Z,15.55
2023-02-19T02:48:22.043Z,12.23
2023-02-19T02:51:02.863Z,15.57
2023-02-19T02:54:06.802Z,19.20
2023-02-19T02:56:35.464Z,13.63
2023-02-19T02:59:05.899Z,11.85
2023-02-19T03:05:22.617Z,13.25
2023-02-19T03:07:53.518Z,11.07
2023-02-19T03:10:27.513Z,13.32
2023-02-19T03:13:16.305Z,14.57
2023-02-19T03:16:08.141Z,12.00
2023-02-19T03:18:57.508Z,15.10
2023-02-19T03:21:25.780Z,16.50
2023-02-19T03:24:12.689Z,15.80
2023-02-19T03:26:43.678Z,13.40
2023-02-19T03:29:26.328Z,15.38
2023-02-19T03:32:36.733Z,17.10
2023-02-19T03:35:11.716Z,15.73
2023-02-19T03:38:02.666Z,15.82
2023-02-19T03:40:37.417Z,10.93
2023-02-19T03:43:34.678Z,13.25
2023-02-19T03:46:23.419Z,12.02
2023-02-19T03:49:05.036Z,11.60
2023-02-19T03:51:51.114Z,13.57
2023-02-19T03:54:47.413Z,15.68
2023-02-19T03:57:36.350Z,14.77
2023-02-19T04:00:39.361Z,15.73
2023-02-19T04:03:13.362Z,13.00
2023-02-19T04:05:47.279Z,22.33
2023-02-19T04:08:18.962Z,17.35
2023-02-19T04:10:53.877Z,16.45
2023-02-19T04:13:33.532Z,15.50
2023-02-19T04:16:06.875Z,16.92
2023-02-19T04:18:40.023Z,17.70
2023-02-19T04:21:09.703Z,15.68
2023-02-19T04:23:44.765Z,18.92
2023-02-19T04:26:13.932Z,16.02
2023-02-19T04:28:43.183Z,18.75
2023-02-19T04:31:10.925Z,17.55
2023-02-19T04:33:38.550Z,17.70
2023-02-19T04:36:07.364Z,14.90
2023-02-19T04:38:34.385Z,17.33
2023-02-19T04:41:01.411Z,20.00
2023-02-19T04:43:28.499Z,13.55
2023-02-19T04:46:00.022Z,17.85
2023-02-19T04:48:27.167Z,16.08
2023-02-19T04:50:54.218Z,16.77
2023-02-19T04:53:21.241Z,16.77
2023-02-19T04:55:48.668Z,20.67
2023-02-19T04:58:15.777Z,12.02
2023-02-19T05:00:42.825Z,15.35
2023-02-19T05:03:09.836Z,12.23
2023-02-19T05:05:36.868Z,13.55
2023-02-19T05:08:03.921Z,14.25
2023-02-19T05:10:31.267Z,12.50
2023-02-19T05:12:58.271Z,11.55
2023-02-19T05:15:25.320Z,17.08
2023-02-19T05:17:52.358Z,14.23
2023-02-19T05:20:19.503Z,14.75
2023-02-19T05:22:46.523Z,14.60
2023-02-19T05:25:13.542Z,13.32
2023-02-19T05:27:40.566Z,9.00
2023-02-19T05:30:08.035Z,12.50
2023-02-19T05:32:35.883Z,13.80
2023-02-19T05:35:03.041Z,18.60
2023-02-19T05:37:30.406Z,14.85
2023-02-19T05:39:57.442Z,13.00
2023-02-19T05:42:24.453Z,13.18
2023-02-19T05:44:51.494Z,12.13
2023-02-19T05:47:18.481Z,18.92
2023-02-19T05:49:45.486Z,17.48
2023-02-19T05:52:12.586Z,11.40
2023-02-19T05:54:39.608Z,12.27
2023-02-19T05:57:06.620Z,12.10
2023-02-19T05:59:33.646Z,13.30
2023-02-19T06:02:00.658Z,8.95
2023-02-19T06:04:27.763Z,10.45
2023-02-19T06:06:54.795Z,12.00
2023-02-19T06:09:21.897Z,10.32
2023-02-19T06:11:48.921Z,12.45
2023-02-19T06:14:16.121Z,16.10
2023-02-19T06:16:43.228Z,13.18
2023-02-19T06:19:10.946Z,10.90
2023-02-19T06:21:38.003Z,15.15
2023-02-19T06:24:06.994Z,13.05
2023-02-19T06:26:34.278Z,11.93
2023-02-19T06:29:01.389Z,13.27
2023-02-19T06:31:28.558Z,12.38
2023-02-19T06:33:55.683Z,11.80
2023-02-19T06:36:23.720Z,12.98
2023-02-19T06:38:51.124Z,12.73
2023-02-19T06:41:19.292Z,10.13
2023-02-19T06:43:46.839Z,11.23
2023-02-19T06:46:14.269Z,11.27
2023-02-19T06:48:43.097Z,11.35
2023-02-19T06:51:13.424Z,24.35
2023-02-19T06:53:40.526Z,10.35
2023-02-19T06:56:23.366Z,12.32
2023-02-19T06:58:50.816Z,10.25
2023-02-19T07:01:18.097Z,12.63
2023-02-19T07:03:45.274Z,9.75
2023-02-19T07:06:12.321Z,10.50
2023-02-19T07:08:39.474Z,12.32
2023-02-19T07:11:08.483Z,12.75
2023-02-19T07:13:35.641Z,12.63
2023-02-19T07:16:08.700Z,11.98
2023-02-19T07:18:36.032Z,11.35
2023-02-19T07:21:12.822Z,13.70
2023-02-19T07:23:41.474Z,12.18
2023-02-19T07:26:13.283Z,9.52
2023-02-19T07:28:42.103Z,11.57
2023-02-19T07:31:09.757Z,8.70
2023-02-19T07:33:37.396Z,10.20
2023-02-19T07:36:07.713Z,12.80
2023-02-19T07:38:34.839Z,12.73
2023-02-19T07:41:04.088Z,12.95
2023-02-19T07:43:33.543Z,21.55
2023-02-19T07:46:11.876Z,11.73
2023-02-19T07:48:40.540Z,12.25
2023-02-19T07:51:11.739Z,11.93
2023-02-19T07:53:39.083Z,13.75
2023-02-19T07:56:08.434Z,10.05
2023-02-19T07:58:35.744Z,9.88
2023-02-19T08:01:16.277Z,12.07
2023-02-19T08:03:44.525Z,11.00
2023-02-19T08:06:12.358Z,10.90
2023-02-19T08:08:39.999Z,14.32
2023-02-19T08:11:26.188Z,14.05
2023-02-19T08:13:54.039Z,14.75
2023-02-19T08:16:36.771Z,12.63
2023-02-19T08:19:09.303Z,10.77
2023-02-19T08:21:36.346Z,12.82
2023-02-19T08:24:03.591Z,10.48
2023-02-19T08:26:30.706Z,13.68
2023-02-19T08:28:59.150Z,15.05
2023-02-19T08:31:27.399Z,14.48
2023-02-19T08:33:54.483Z,11.73
2023-02-19T08:36:21.556Z,14.70
2023-02-19T08:38:48.606Z,13.15
2023-02-19T08:41:16.089Z,11.05
2023-02-19T08:43:43.422Z,12.35
2023-02-19T08:46:12.137Z,12.48
2023-02-19T08:48:40.236Z,13.25
2023-02-19T08:51:10.334Z,12.68
2023-02-19T08:53:39.357Z,14.45
2023-02-19T08:56:11.472Z,8.88
2023-02-19T08:58:38.858Z,10.88
2023-02-19T09:01:14.849Z,14.70
2023-02-19T09:03:42.378Z,15.48
2023-02-19T09:06:15.903Z,16.90
2023-02-19T09:08:42.945Z,13.43
2023-02-19T09:11:10.392Z,11.25
2023-02-19T09:13:37.938Z,15.57
2023-02-19T09:16:06.125Z,15.60
2023-02-19T09:18:33.299Z,12.18
2023-02-19T09:21:02.452Z,14.35
2023-02-19T09:23:29.661Z,11.98
2023-02-19T09:26:01.109Z,14.30
2023-02-19T09:28:28.768Z,13.27
2023-02-19T09:30:56.046Z,13.50
2023-02-19T09:33:23.237Z,12.40
2023-02-19T09:35:50.333Z,17.70
2023-02-19T09:38:17.536Z,12.25
2023-02-19T09:40:44.698Z,12.40
2023-02-19T09:43:19.966Z,12.38
2023-02-19T09:45:48.045Z,15.77
2023-02-19T09:48:15.163Z,14.77
2023-02-19T09:50:49.089Z,12.57
2023-02-19T09:53:24.799Z,13.57
2023-02-19T09:58:27.563Z,11.27
2023-02-19T10:00:56.823Z,11.98
2023-02-19T10:03:33.860Z,18.30
2023-02-19T10:06:20.884Z,12.32
2023-02-19T10:08:50.955Z,12.93
2023-02-19T10:11:19.136Z,11.48
2023-02-19T10:14:05.109Z,16.30
2023-02-19T10:16:32.532Z,11.93
2023-02-19T10:18:59.587Z,12.48
2023-02-19T10:21:28.226Z,15.77
2023-02-19T10:24:00.522Z,15.18
2023-02-19T10:26:27.867Z,15.73
2023-02-19T10:28:55.684Z,17.90
2023-02-19T10:31:25.541Z,12.95
2023-02-19T10:33:58.352Z,15.57
2023-02-19T10:36:39.954Z,13.30
2023-02-19T10:41:51.620Z,14.63
2023-02-19T10:44:24.362Z,16.50
2023-02-19T10:46:55.347Z,13.35
2023-02-19T10:49:32.985Z,15.23
2023-02-19T10:52:17.973Z,16.00
2023-02-19T10:54:46.909Z,17.42
2023-02-19T10:57:17.025Z,13.23
2023-02-19T10:59:58.665Z,16.95
2023-02-19T11:05:17.283Z,15.88
2023-02-19T11:07:48.539Z,16.35
2023-02-19T11:10:34.587Z,14.18
2023-02-19T11:13:05.140Z,12.50
2023-02-19T11:15:35.015Z,17.65
2023-02-19T11:18:20.666Z,20.83
2023-02-19T11:20:55.931Z,12.25
2023-02-19T11:23:34.330Z,14.20
2023-02-19T11:26:06.535Z,12.48
2023-02-19T11:28:35.582Z,10.32
2023-02-19T11:31:20.300Z,14.68
2023-02-19T11:34:26.305Z,14.50
2023-02-19T11:37:28.820Z,13.68
2023-02-19T11:39:55.843Z,15.52
2023-02-19T11:49:51.122Z,16.08
2023-02-19T11:52:27.080Z,14.80
2023-02-19T11:55:09.110Z,17.10
2023-02-19T12:01:15.883Z,15.88
2023-02-19T12:04:23.247Z,14.70
2023-02-19T12:06:55.991Z,13.05
2023-02-19T12:09:41.679Z,16.65
2023-02-19T12:12:21.801Z,16.00
2023-02-19T12:15:20.306Z,11.27
2023-02-19T12:17:59.412Z,15.20
2023-02-19T12:21:10.130Z,16.92
2023-02-19T12:24:16.477Z,12.40
2023-02-19T12:27:05.352Z,13.85
2023-02-19T12:29:47.500Z,14.35
2023-02-19T12:32:56.039Z,15.80
2023-02-19T12:35:48.099Z,12.77
2023-02-19T12:38:24.991Z,16.50
2023-02-19T12:41:04.400Z,16.45
2023-02-19T12:43:33.688Z,19.70
2023-02-19T12:46:11.647Z,12.80
2023-02-19T12:49:08.707Z,16.70
2023-02-19T12:51:44.845Z,17.45
2023-02-19T12:54:25.357Z,16.52
2023-02-19T12:57:00.444Z,12.93
2023-02-19T12:59:31.724Z,15.38
2023-02-19T13:02:38.067Z,17.92
2023-02-19T13:05:11.271Z,16.52
2023-02-19T13:07:51.348Z,18.13
2023-02-19T13:10:31.883Z,16.73
2023-02-19T13:13:05.102Z,17.63
2023-02-19T13:15:48.554Z,14.35
2023-02-19T13:18:21.402Z,16.95
2023-02-19T13:20:49.473Z,21.60
2023-02-19T13:23:51.933Z,17.80
2023-02-19T13:26:40.538Z,18.05
2023-02-19T13:29:26.085Z,13.63
2023-02-19T13:31:53.356Z,15.98
2023-02-19T13:34:38.704Z,15.60
2023-02-19T13:37:06.501Z,18.98
2023-02-19T13:39:34.557Z,19.35
2023-02-19T13:42:02.057Z,17.33
2023-02-19T13:44:32.467Z,17.50
2023-02-19T13:47:00.755Z,16.75
2023-02-19T13:49:27.921Z,19.27
2023-02-19T13:52:29.356Z,14.75
2023-02-19T13:55:33.956Z,15.63
2023-02-19T13:58:33.511Z,15.07
2023-02-19T14:04:07.138Z,16.50
2023-02-19T14:07:05.929Z,18.83
2023-02-19T14:09:41.554Z,17.80
2023-02-19T14:12:09.763Z,13.43
2023-02-19T14:14:43.709Z,19.27
2023-02-19T14:17:10.736Z,19.13
2023-02-19T14:19:57.244Z,17.40
2023-02-19T14:22:47.573Z,19.75
2023-02-19T14:25:28.470Z,22.65
2023-02-19T14:28:05.959Z,16.90
2023-02-19T14:30:35.278Z,19.23
2023-02-19T14:33:11.459Z,15.75
2023-02-19T14:35:42.749Z,19.17
2023-02-19T14:38:36.301Z,20.77
2023-02-19T14:43:32.034Z,13.80
2023-02-19T14:46:09.723Z,15.18
2023-02-19T14:48:46.672Z,14.10
2023-02-19T14:51:27.716Z,17.33
2023-02-19T14:53:57.415Z,16.63
2023-02-19T14:56:31.479Z,19.10
2023-02-19T14:59:09.390Z,15.50
2023-02-19T15:01:36.585Z,22.65
2023-02-19T15:04:04.533Z,13.93
2023-02-19T15:06:34.007Z,13.98
2023-02-19T15:09:06.161Z,19.13
2023-02-19T15:11:34.846Z,17.70
2023-02-19T15:14:08.018Z,16.65
2023-02-19T15:16:36.925Z,13.75
2023-02-19T15:19:09.648Z,19.17
2023-02-19T15:21:44.891Z,15.93
2023-02-19T15:24:15.509Z,24.38
2023-02-19T15:26:47.183Z,17.83
2023-02-19T15:29:17.348Z,20.85
2023-02-19T15:31:55.221Z,17.13
2023-02-19T15:34:31.176Z,17.92
2023-02-19T15:37:07.215Z,17.38
2023-02-19T15:39:40.573Z,17.83
2023-02-19T15:42:15.575Z,17.77
2023-02-19T15:45:08.594Z,16.80
2023-02-19T15:47:38.588Z,16.00
2023-02-19T15:50:23.275Z,18.42
2023-02-19T15:53:04.159Z,15.88
2023-02-19T15:55:40.469Z,18.38
2023-02-19T15:58:40.548Z,15.45
2023-02-19T16:01:20.170Z,14.02
2023-02-19T16:03:48.151Z,18.25
2023-02-19T16:06:17.059Z,16.77
2023-02-19T16:09:04.652Z,13.65
2023-02-19T16:14:18.611Z,13.18
2023-02-19T16:16:49.307Z,15.60
2023-02-19T16:19:26.558Z,15.13
2023-02-19T16:21:55.816Z,19.90
2023-02-19T16:24:28.406Z,20.83
2023-02-19T16:26:57.190Z,17.90
2023-02-19T16:29:28.052Z,15.52
2023-02-19T16:31:59.815Z,18.80
2023-02-19T16:34:40.677Z,28.08
2023-02-19T16:37:41.233Z,17.48
2023-02-19T16:40:08.265Z,19.65
2023-02-19T16:42:36.664Z,17.77
2023-02-19T16:45:03.964Z,21.45
2023-02-19T16:47:34.582Z,19.55
2023-02-19T16:50:03.891Z,18.25
2023-02-19T16:52:31.365Z,21.83
2023-02-19T16:54:58.499Z,23.60
2023-02-19T16:57:25.591Z,23.30
2023-02-19T16:59:52.674Z,16.92
2023-02-19T17:02:22.629Z,18.10
2023-02-19T17:07:18.840Z,18.70
2023-02-19T17:09:46.105Z,26.25
2023-02-19T17:12:15.822Z,18.40
2023-02-19T17:14:42.965Z,18.50
2023-02-19T17:17:10.170Z,16.63
2023-02-19T17:19:39.342Z,19.98
2023-02-19T17:22:07.136Z,20.48
2023-02-19T17:24:34.281Z,26.48
2023-02-19T17:27:01.492Z,19.80
2023-02-19T17:29:30.687Z,21.05
2023-02-19T17:31:57.887Z,22.77
2023-02-19T17:34:24.982Z,24.80
2023-02-19T17:36:52.218Z,21.48
2023-02-19T17:39:19.581Z,22.02
2023-02-19T17:41:46.628Z,33.13
2023-02-19T17:44:13.680Z,20.13
2023-02-19T17:46:41.258Z,22.50
2023-02-19T17:49:10.143Z,21.30
2023-02-19T17:51:37.265Z,23.55
2023-02-19T17:54:05.825Z,19.75
2023-02-19T17:56:34.031Z,24.25
2023-02-19T17:59:01.153Z,24.38
2023-02-19T18:01:28.303Z,26.60
2023-02-19T18:03:55.464Z,24.48
2023-02-19T18:06:22.533Z,24.77
2023-02-19T18:08:51.407Z,19.27
2023-02-19T18:11:19.939Z,21.88
2023-02-19T18:13:48.222Z,30.70
2023-02-19T18:16:16.300Z,23.45
2023-02-19T18:18:44.705Z,25.85
2023-02-19T18:21:13.234Z,21.60
2023-02-19T18:23:40.562Z,20.65
2023-02-19T18:26:10.444Z,23.27
2023-02-19T18:31:06.055Z,21.33
2023-02-19T18:33:34.408Z,23.13
2023-02-19T18:36:01.532Z,22.52
2023-02-19T18:38:28.924Z,28.80
2023-02-19T18:40:57.845Z,26.88
2023-02-19T18:43:26.273Z,22.63
2023-02-19T18:45:53.440Z,26.50
2023-02-19T18:48:20.570Z,27.38
2023-02-19T18:50:47.734Z,24.33
2023-02-19T18:53:15.104Z,23.38
2023-02-19T18:55:42.325Z,24.23
2023-02-19T18:58:09.514Z,24.67
2023-02-19T19:00:36.726Z,28.15
2023-02-19T19:03:03.909Z,22.85
2023-02-19T19:05:31.106Z,20.95
2023-02-19T19:07:59.722Z,22.45
2023-02-19T19:10:28.497Z,22.40
2023-02-19T19:12:55.695Z,33.50
2023-02-19T19:15:24.007Z,23.48
2023-02-19T19:17:51.364Z,23.10
2023-02-19T19:20:20.608Z,23.63
2023-02-19T19:22:54.002Z,27.05
2023-02-19T19:25:23.013Z,27.67
2023-02-19T19:27:51.844Z,27.58
2023-02-19T19:30:20.340Z,23.13
2023-02-19T19:32:52.411Z,20.83
2023-02-19T19:35:21.441Z,26.90
2023-02-19T19:37:49.605Z,24.65
2023-02-19T19:40:17.990Z,29.48
2023-02-19T19:42:45.107Z,25.90
2023-02-19T19:45:12.625Z,23.95
2023-02-19T19:47:39.847Z,26.92
2023-02-19T19:50:07.059Z,28.05
2023-02-19T19:52:34.214Z,25.70
2023-02-19T19:55:01.371Z,26.30
2023-02-19T19:57:30.038Z,25.15
2023-02-19T19:59:57.118Z,24.10
2023-02-19T20:02:24.404Z,28.63
2023-02-19T20:04:51.497Z,25.40
2023-02-19T20:07:18.749Z,28.58
2023-02-19T20:09:49.895Z,28.48
2023-02-19T20:12:17.689Z,28.10
2023-02-19T20:14:46.377Z,27.13
2023-02-19T20:17:13.988Z,25.83
2023-02-19T20:19:41.131Z,30.52
2023-02-19T20:22:08.253Z,28.20
2023-02-19T20:24:35.300Z,27.95
2023-02-19T20:27:02.735Z,30.08
2023-02-19T20:29:33.182Z,28.55
2023-02-19T20:32:02.732Z,24.40
2023-02-19T20:34:30.508Z,27.02
2023-02-19T20:36:58.026Z,27.35
2023-02-19T20:39:29.020Z,30.55
2023-02-19T20:41:57.949Z,29.58
2023-02-19T20:44:26.432Z,27.63
2023-02-19T20:46:54.026Z,28.25
2023-02-19T20:49:23.763Z,26.33
2023-02-19T20:51:54.899Z,30.35
2023-02-19T20:54:27.731Z,29.80
2023-02-19T20:56:57.458Z,29.05
2023-02-19T20:59:28.015Z,29.90
2023-02-19T21:01:55.066Z,28.58
2023-02-19T21:04:22.184Z,31.38
2023-02-19T21:06:52.280Z,34.08
2023-02-19T21:09:20.612Z,31.00
2023-02-19T21:11:48.673Z,30.73
2023-02-19T21:14:16.669Z,29.52
2023-02-19T21:16:44.258Z,27.05
2023-02-19T21:19:11.316Z,36.10
2023-02-19T21:21:40.432Z,27.67
2023-02-19T21:24:09.385Z,32.40
2023-02-19T21:26:38.491Z,27.15
2023-02-19T21:29:07.102Z,31.08
2023-02-19T21:31:38.601Z,37.25
2023-02-19T21:34:10.076Z,36.53
2023-02-19T21:36:37.587Z,27.63
2023-02-19T21:39:05.704Z,34.20
2023-02-19T21:41:32.789Z,25.08
2023-02-19T21:44:00.009Z,30.17
2023-02-19T21:46:27.324Z,32.08
2023-02-19T21:48:56.353Z,28.35
2023-02-19T21:51:30.381Z,27.70
2023-02-19T21:53:57.884Z,25.30
2023-02-19T21:56:27.623Z,25.38
2023-02-19T21:58:54.736Z,28.95
2023-02-19T22:01:25.971Z,27.05
2023-02-19T22:03:53.265Z,28.10
2023-02-19T22:06:26.921Z,26.52
2023-02-19T22:08:55.345Z,29.70
2023-02-19T22:11:22.590Z,31.55
2023-02-19T22:13:49.889Z,27.80
2023-02-19T22:16:18.169Z,28.80
2023-02-19T22:18:53.046Z,29.27
2023-02-19T22:21:21.445Z,25.73
2023-02-19T22:23:50.058Z,27.75
2023-02-19T22:26:22.906Z,29.35
2023-02-19T22:28:50.293Z,27.73
2023-02-19T22:31:20.123Z,26.15
2023-02-19T22:36:22.789Z,24.40
2023-02-19T22:41:18.172Z,28.00
2023-02-19T22:43:45.834Z,27.05
2023-02-19T22:46:23.970Z,23.67
2023-02-19T22:48:51.415Z,23.52
2023-02-19T22:51:21.004Z,27.33
2023-02-19T22:53:55.705Z,28.90
2023-02-19T22:56:25.467Z,30.65
2023-02-19T22:58:53.986Z,31.40
2023-02-19T23:01:21.797Z,30.70
2023-02-19T23:03:51.203Z,30.23
2023-02-19T23:06:23.303Z,28.17
2023-02-19T23:08:51.388Z,28.20
2023-02-19T23:11:27.189Z,31.92
2023-02-19T23:16:21.913Z,29.98
2023-02-19T23:18:49.445Z,33.92
2023-02-19T23:21:17.551Z,29.63
2023-02-19T23:23:46.277Z,31.30
2023-02-19T23:26:14.812Z,34.60
2023-02-19T23:28:43.461Z,31.75
2023-02-19T23:31:11.491Z,27.98
2023-02-19T23:33:40.251Z,34.63
2023-02-19T23:36:08.309Z,27.27
2023-02-19T23:38:35.586Z,33.65
2023-02-19T23:41:03.091Z,29.38
2023-02-19T23:43:30.232Z,28.42
2023-02-19T23:45:57.324Z,27.80
2023-02-19T23:48:24.387Z,28.85
2023-02-19T23:50:51.505Z,26.80
2023-02-19T23:53:18.750Z,28.73
2023-02-19T23:55:45.903Z,31.67
2023-02-19T23:58:13.104Z,24.45
